createdAt,value
2023-02-01T00:01:09.792Z,100493.06
2023-02-01T00:03:37.899Z,100498.69
2023-02-01T00:06:05.846Z,100502.63
2023-02-01T00:08:33.331Z,100498.22
2023-02-01T00:11:08.787Z,100490.00
2023-02-01T00:13:40.184Z,100490.03
2023-02-01T00:16:17.347Z,100492.31
2023-02-01T00:18:47.140Z,100484.28
2023-02-01T00:21:17.532Z,100496.88
2023-02-01T00:23:46.352Z,100500.34
2023-02-01T00:26:36.268Z,100496.88
2023-02-01T00:29:08.231Z,100496.13
2023-02-01T00:31:35.671Z,100492.81
2023-02-01T00:34:03.475Z,100483.56
2023-02-01T00:36:30.955Z,100495.53
2023-02-01T00:38:58.363Z,100485.25
2023-02-01T00:41:26.837Z,100490.41
2023-02-01T00:43:54.067Z,100492.50
2023-02-01T00:46:22.777Z,100488.56
2023-02-01T00:48:50.738Z,100487.66
2023-02-01T00:51:25.122Z,100484.50
2023-02-01T00:53:52.488Z,100480.53
2023-02-01T00:56:20.726Z,100482.34
2023-02-01T00:58:48.313Z,100475.84
2023-02-01T01:01:24.850Z,100478.59
2023-02-01T01:03:59.833Z,100476.75
2023-02-01T01:06:33.302Z,100472.22
2023-02-01T01:09:05.275Z,100470.97
2023-02-01T01:11:37.837Z,100463.72
2023-02-01T01:14:10.075Z,100471.00
2023-02-01T01:16:37.587Z,100464.34
2023-02-01T01:19:05.095Z,100464.34
2023-02-01T01:21:32.930Z,100469.34
2023-02-01T01:24:00.350Z,100472.81
2023-02-01T01:26:30.817Z,100471.75
2023-02-01T01:29:00.260Z,100469.78
2023-02-01T01:31:28.400Z,100472.78
2023-02-01T01:33:59.611Z,100473.72
2023-02-01T01:36:28.720Z,100466.78
2023-02-01T01:38:56.007Z,100467.06
2023-02-01T01:41:32.055Z,100464.66
2023-02-01T01:44:27.652Z,100463.09
2023-02-01T01:46:55.116Z,100471.16
2023-02-01T01:49:27.069Z,100467.97
2023-02-01T01:52:02.518Z,100463.72
2023-02-01T01:54:42.174Z,100456.00
2023-02-01T01:57:39.460Z,100457.34
2023-02-01T02:00:18.813Z,100455.69
2023-02-01T02:02:50.180Z,100448.25
2023-02-01T02:05:19.437Z,100446.88
2023-02-01T02:07:50.507Z,100446.75
2023-02-01T02:10:18.430Z,100446.00
2023-02-01T02:12:48.956Z,100445.53
2023-02-01T02:15:18.140Z,100443.88
2023-02-01T02:18:26.880Z,100442.19
2023-02-01T02:21:43.135Z,100445.06
2023-02-01T02:24:36.010Z,100444.44
2023-02-01T02:27:25.750Z,100433.06
2023-02-01T02:30:48.119Z,100430.66
2023-02-01T02:33:57.101Z,100425.41
2023-02-01T02:37:25.716Z,100429.47
2023-02-01T02:40:16.205Z,100424.13
2023-02-01T02:43:51.907Z,100423.34
2023-02-01T02:46:59.803Z,100428.78
2023-02-01T02:50:10.932Z,100432.44
2023-02-01T02:53:10.324Z,100430.50
2023-02-01T02:55:39.158Z,100425.97
2023-02-01T02:58:26.859Z,100426.28
2023-02-01T03:01:14.576Z,100425.81
2023-02-01T03:04:00.868Z,100425.06
2023-02-01T03:06:28.623Z,100420.94
2023-02-01T03:08:59.445Z,100423.66
2023-02-01T03:11:50.297Z,100425.59
2023-02-01T03:14:21.761Z,100426.94
2023-02-01T03:16:59.788Z,100423.03
2023-02-01T03:19:36.783Z,100424.84
2023-02-01T03:22:09.945Z,100421.53
2023-02-01T03:24:53.005Z,100420.91
2023-02-01T03:27:37.084Z,100429.34
2023-02-01T03:30:24.136Z,100423.72
2023-02-01T03:33:02.633Z,100425.69
2023-02-01T03:36:04.099Z,100434.31
2023-02-01T03:39:10.301Z,100430.81
2023-02-01T03:41:56.843Z,100438.03
2023-02-01T03:45:19.422Z,100437.41
2023-02-01T03:47:54.459Z,100436.00
2023-02-01T03:50:24.863Z,100434.16
2023-02-01T03:53:03.756Z,100437.78
2023-02-01T03:55:33.765Z,100438.19
2023-02-01T03:58:19.489Z,100431.06
2023-02-01T04:00:58.757Z,100432.88
2023-02-01T04:03:28.359Z,100436.78
2023-02-01T04:05:56.033Z,100438.31
2023-02-01T04:08:27.442Z,100435.41
2023-02-01T04:10:54.683Z,100426.50
2023-02-01T04:13:21.930Z,100425.97
2023-02-01T04:15:50.810Z,100426.47
2023-02-01T04:18:18.140Z,100428.72
2023-02-01T04:20:45.948Z,100426.00
2023-02-01T04:23:13.266Z,100425.13
2023-02-01T04:25:40.520Z,100424.19
2023-02-01T04:28:08.547Z,100433.22
2023-02-01T04:30:35.936Z,100445.13
2023-02-01T04:33:06.229Z,100435.88
2023-02-01T04:35:34.272Z,100442.34
2023-02-01T04:38:02.047Z,100449.31
2023-02-01T04:40:29.308Z,100440.38
2023-02-01T04:42:56.640Z,100446.69
2023-02-01T04:45:23.799Z,100452.44
2023-02-01T04:47:56.073Z,100445.47
2023-02-01T04:50:24.893Z,100451.66
2023-02-01T04:52:52.189Z,100445.91
2023-02-01T04:55:19.475Z,100446.34
2023-02-01T04:57:46.732Z,100455.09
2023-02-01T05:00:14.862Z,100465.09
2023-02-01T05:02:42.056Z,100466.16
2023-02-01T05:05:09.917Z,100464.94
2023-02-01T05:07:37.161Z,100469.59
2023-02-01T05:10:04.892Z,100471.09
2023-02-01T05:12:50.956Z,100470.31
2023-02-01T05:15:18.248Z,100471.38
2023-02-01T05:17:45.458Z,100479.78
2023-02-01T05:20:13.011Z,100480.03
2023-02-01T05:22:40.230Z,100481.69
2023-02-01T05:25:08.563Z,100480.88
2023-02-01T05:27:36.006Z,100472.00
2023-02-01T05:30:06.469Z,100469.84
2023-02-01T05:32:34.014Z,100465.00
2023-02-01T05:35:01.669Z,100471.13
2023-02-01T05:37:29.283Z,100461.19
2023-02-01T05:39:56.500Z,100453.72
2023-02-01T05:42:23.755Z,100458.69
2023-02-01T05:44:50.993Z,100456.97
2023-02-01T05:47:18.635Z,100464.34
2023-02-01T05:49:45.869Z,100464.31
2023-02-01T05:52:13.179Z,100468.03
2023-02-01T05:54:40.504Z,100472.41
2023-02-01T05:57:09.399Z,100469.84
2023-02-01T05:59:41.946Z,100483.44
2023-02-01T06:02:10.949Z,100478.47
2023-02-01T06:04:38.876Z,100478.78
2023-02-01T06:07:08.659Z,100475.94
2023-02-01T06:09:37.377Z,100474.94
2023-02-01T06:12:05.634Z,100466.78
2023-02-01T06:14:32.871Z,100471.53
2023-02-01T06:17:00.089Z,100464.88
2023-02-01T06:19:27.487Z,100459.16
2023-02-01T06:21:55.056Z,100448.47
2023-02-01T06:24:23.349Z,100448.44
2023-02-01T06:26:50.653Z,100447.34
2023-02-01T06:29:17.964Z,100456.84
2023-02-01T06:31:45.270Z,100464.72
2023-02-01T06:34:12.503Z,100458.78
2023-02-01T06:36:41.016Z,100473.28
2023-02-01T06:39:08.255Z,100477.34
2023-02-01T06:41:35.804Z,100479.31
2023-02-01T06:44:03.217Z,100476.06
2023-02-01T06:46:30.586Z,100483.75
2023-02-01T06:48:57.811Z,100479.47
2023-02-01T06:51:29.307Z,100484.91
2023-02-01T06:53:57.573Z,100492.22
2023-02-01T06:56:25.703Z,100497.34
2023-02-01T06:58:53.122Z,100503.03
2023-02-01T07:01:21.084Z,100502.66
2023-02-01T07:03:52.129Z,100504.13
2023-02-01T07:06:20.505Z,100505.59
2023-02-01T07:08:47.952Z,100505.44
2023-02-01T07:11:17.913Z,100508.47
2023-02-01T07:13:46.231Z,100514.31
2023-02-01T07:16:20.762Z,100521.13
2023-02-01T07:18:50.185Z,100521.69
2023-02-01T07:21:17.647Z,100532.13
2023-02-01T07:23:44.964Z,100527.63
2023-02-01T07:26:14.789Z,100537.06
2023-02-01T07:28:42.432Z,100531.41
2023-02-01T07:31:14.542Z,100531.88
2023-02-01T07:33:42.975Z,100539.16
2023-02-01T07:36:16.226Z,100529.56
2023-02-01T07:38:44.459Z,100525.72
2023-02-01T07:41:11.970Z,100501.75
2023-02-01T07:43:39.506Z,100498.41
2023-02-01T07:46:08.168Z,100505.22
2023-02-01T07:48:35.492Z,100503.56
2023-02-01T07:51:12.032Z,100503.09
2023-02-01T07:53:40.112Z,100508.25
2023-02-01T07:56:20.360Z,100519.47
2023-02-01T07:58:53.506Z,100514.75
2023-02-01T08:01:26.010Z,100520.94
2023-02-01T08:04:03.163Z,100536.13
2023-02-01T08:06:35.489Z,100544.28
2023-02-01T08:09:04.388Z,100534.72
2023-02-01T08:11:31.980Z,100536.22
2023-02-01T08:14:00.726Z,100531.22
2023-02-01T08:16:28.303Z,100535.44
2023-02-01T08:18:55.931Z,100525.41
2023-02-01T08:21:37.284Z,100527.59
2023-02-01T08:24:11.065Z,100526.03
2023-02-01T08:26:38.761Z,100528.63
2023-02-01T08:29:11.446Z,100527.28
2023-02-01T08:31:41.663Z,100542.09
2023-02-01T08:34:10.579Z,100529.75
2023-02-01T08:36:39.165Z,100535.66
2023-02-01T08:39:09.932Z,100535.06
2023-02-01T08:41:37.491Z,100535.34
2023-02-01T08:44:06.395Z,100544.25
2023-02-01T08:46:33.655Z,100525.84
2023-02-01T08:49:01.922Z,100537.31
2023-02-01T08:51:29.289Z,100523.00
2023-02-01T08:53:57.606Z,100522.09
2023-02-01T08:56:25.925Z,100526.56
2023-02-01T08:58:53.272Z,100517.28
2023-02-01T09:01:20.834Z,100517.50
2023-02-01T09:03:48.328Z,100519.53
2023-02-01T09:06:17.220Z,100506.84
2023-02-01T09:08:45.463Z,100516.94
2023-02-01T09:11:18.338Z,100508.28
2023-02-01T09:13:46.611Z,100508.47
2023-02-01T09:16:14.304Z,100514.72
2023-02-01T09:18:50.763Z,100514.06
2023-02-01T09:21:23.838Z,100523.91
2023-02-01T09:23:53.132Z,100528.84
2023-02-01T09:26:26.464Z,100523.56
2023-02-01T09:28:58.718Z,100519.44
2023-02-01T09:31:26.254Z,100525.28
2023-02-01T09:33:53.551Z,100512.59
2023-02-01T09:36:20.936Z,100520.22
2023-02-01T09:38:52.735Z,100519.66
2023-02-01T09:42:15.399Z,100522.69
2023-02-01T09:45:09.430Z,100517.16
2023-02-01T09:47:40.685Z,100515.44
2023-02-01T09:50:24.786Z,100508.97
2023-02-01T09:53:07.871Z,100516.84
2023-02-01T09:55:52.061Z,100511.81
2023-02-01T09:58:42.969Z,100510.22
2023-02-01T10:01:24.683Z,100500.44
2023-02-01T10:04:03.264Z,100508.41
2023-02-01T10:07:17.468Z,100509.00
2023-02-01T10:10:08.600Z,100493.97
2023-02-01T10:13:22.600Z,100497.00
2023-02-01T10:16:46.931Z,100499.72
2023-02-01T10:19:48.025Z,100506.63
2023-02-01T10:23:00.324Z,100507.88
2023-02-01T10:26:02.232Z,100493.66
2023-02-01T10:28:31.468Z,100489.75
2023-02-01T10:31:00.010Z,100482.66
2023-02-01T10:33:44.042Z,100496.25
2023-02-01T10:36:23.395Z,100495.41
2023-02-01T10:38:51.127Z,100489.34
2023-02-01T10:41:23.408Z,100482.06
2023-02-01T10:43:57.236Z,100480.06
2023-02-01T10:46:25.361Z,100480.13
2023-02-01T10:48:56.928Z,100471.78
2023-02-01T10:52:03.595Z,100467.97
2023-02-01T10:54:39.379Z,100468.06
2023-02-01T10:57:30.594Z,100472.72
2023-02-01T10:59:57.954Z,100472.84
2023-02-01T11:02:34.423Z,100479.84
2023-02-01T11:05:11.496Z,100484.94
2023-02-01T11:07:48.063Z,100479.31
2023-02-01T11:10:42.759Z,100464.81
2023-02-01T11:13:19.941Z,100461.94
2023-02-01T11:15:57.323Z,100474.31
2023-02-01T11:18:37.763Z,100445.84
2023-02-01T11:21:08.169Z,100458.66
2023-02-01T11:23:45.976Z,100464.53
2023-02-01T11:26:29.210Z,100445.38
2023-02-01T11:29:14.674Z,100443.53
2023-02-01T11:31:44.014Z,100434.97
2023-02-01T11:34:25.679Z,100429.25
2023-02-01T11:36:56.422Z,100428.47
2023-02-01T11:39:36.856Z,100418.13
2023-02-01T11:42:18.116Z,100415.41
2023-02-01T11:44:48.269Z,100406.88
2023-02-01T11:47:32.810Z,100394.88
2023-02-01T11:50:06.029Z,100401.84
2023-02-01T11:52:45.173Z,100401.78
2023-02-01T11:55:30.074Z,100406.19
2023-02-01T11:58:44.847Z,100402.06
2023-02-01T12:01:49.227Z,100396.94
2023-02-01T12:04:45.984Z,100387.22
2023-02-01T12:07:24.328Z,100377.31
2023-02-01T12:10:58.051Z,100375.19
2023-02-01T12:14:19.773Z,100377.81
2023-02-01T12:17:34.747Z,100379.56
2023-02-01T12:21:11.534Z,100351.22
2023-02-01T12:24:17.487Z,100362.34
2023-02-01T12:27:35.134Z,100360.09
2023-02-01T12:30:33.930Z,100339.22
2023-02-01T12:33:42.763Z,100341.00
2023-02-01T12:37:07.677Z,100342.19
2023-02-01T12:40:26.526Z,100337.84
2023-02-01T12:43:11.934Z,100324.72
2023-02-01T12:46:05.436Z,100326.03
2023-02-01T12:48:55.865Z,100327.28
2023-02-01T12:51:38.567Z,100324.88
2023-02-01T12:54:31.882Z,100321.84
2023-02-01T12:57:08.256Z,100326.03
2023-02-01T12:59:50.070Z,100322.72
2023-02-01T13:03:10.036Z,100322.41
2023-02-01T13:06:15.166Z,100316.63
2023-02-01T13:09:11.100Z,100307.16
2023-02-01T13:11:46.445Z,100308.22
2023-02-01T13:14:41.154Z,100303.13
2023-02-01T13:17:32.733Z,100306.09
2023-02-01T13:20:38.613Z,100304.47
2023-02-01T13:23:29.004Z,100293.69
2023-02-01T13:25:56.626Z,100294.66
2023-02-01T13:28:50.802Z,100292.19
2023-02-01T13:31:55.555Z,100293.19
2023-02-01T13:34:50.944Z,100294.25
2023-02-01T13:37:59.965Z,100283.13
2023-02-01T13:41:04.119Z,100282.22
2023-02-01T13:43:32.994Z,100279.13
2023-02-01T13:46:09.598Z,100289.00
2023-02-01T13:49:04.074Z,100290.25
2023-02-01T13:51:46.891Z,100288.72
2023-02-01T13:54:40.981Z,100283.19
2023-02-01T13:57:39.037Z,100271.81
2023-02-01T14:00:45.475Z,100279.63
2023-02-01T14:03:44.615Z,100278.50
2023-02-01T14:06:28.471Z,100276.84
2023-02-01T14:09:20.638Z,100267.25
2023-02-01T14:11:54.783Z,100264.28
2023-02-01T14:14:21.893Z,100269.53
2023-02-01T14:16:55.003Z,100267.03
2023-02-01T14:19:28.752Z,100278.75
2023-02-01T14:22:20.470Z,100271.59
2023-02-01T14:24:58.016Z,100275.31
2023-02-01T14:27:30.722Z,100271.22
2023-02-01T14:30:13.057Z,100272.13
2023-02-01T14:32:45.232Z,100273.44
2023-02-01T14:35:28.876Z,100268.88
2023-02-01T14:38:07.967Z,100267.56
2023-02-01T14:40:36.857Z,100278.28
2023-02-01T14:43:04.209Z,100273.09
2023-02-01T14:45:34.390Z,100271.88
2023-02-01T14:48:07.940Z,100272.53
2023-02-01T14:50:43.814Z,100267.03
2023-02-01T14:53:14.369Z,100270.34
2023-02-01T14:55:46.679Z,100269.78
2023-02-01T14:58:35.664Z,100265.44
2023-02-01T15:01:56.251Z,100261.94
2023-02-01T15:04:28.524Z,100256.03
2023-02-01T15:07:05.756Z,100253.19
2023-02-01T15:09:47.542Z,100259.91
2023-02-01T15:12:18.701Z,100256.63
2023-02-01T15:15:05.158Z,100259.41
2023-02-01T15:17:35.039Z,100258.31
2023-02-01T15:20:19.085Z,100255.72
2023-02-01T15:23:17.483Z,100258.59
2023-02-01T15:25:47.928Z,100253.88
2023-02-01T15:28:27.694Z,100252.25
2023-02-01T15:31:09.285Z,100252.09
2023-02-01T15:33:36.777Z,100251.69
2023-02-01T15:36:07.049Z,100248.00
2023-02-01T15:38:43.559Z,100254.16
2023-02-01T15:41:20.422Z,100255.94
2023-02-01T15:44:10.529Z,100254.91
2023-02-01T15:46:44.816Z,100253.19
2023-02-01T15:49:41.454Z,100269.16
2023-02-01T15:52:38.282Z,100266.09
2023-02-01T15:55:19.720Z,100262.47
2023-02-01T15:57:47.829Z,100262.72
2023-02-01T16:00:24.270Z,100266.94
2023-02-01T16:03:06.128Z,100273.97
2023-02-01T16:05:45.797Z,100278.53
2023-02-01T16:08:26.996Z,100287.69
2023-02-01T16:11:23.996Z,100295.19
2023-02-01T16:13:51.273Z,100288.66
2023-02-01T16:16:18.663Z,100294.59
2023-02-01T16:18:46.266Z,100299.09
2023-02-01T16:21:13.758Z,100305.28
2023-02-01T16:23:41.250Z,100301.16
2023-02-01T16:26:08.515Z,100304.38
2023-02-01T16:28:35.839Z,100300.44
2023-02-01T16:31:03.623Z,100294.03
2023-02-01T16:33:31.294Z,100298.13
2023-02-01T16:36:01.261Z,100296.72
2023-02-01T16:38:28.994Z,100306.97
2023-02-01T16:40:58.531Z,100309.25
2023-02-01T16:43:27.268Z,100305.94
2023-02-01T16:46:01.036Z,100313.22
2023-02-01T16:48:31.638Z,100314.66
2023-02-01T16:51:10.447Z,100315.38
2023-02-01T16:53:53.169Z,100331.34
2023-02-01T16:56:26.092Z,100330.50
2023-02-01T16:58:55.536Z,100335.56
2023-02-01T17:01:23.200Z,100337.16
2023-02-01T17:03:51.064Z,100337.78
2023-02-01T17:06:25.265Z,100346.75
2023-02-01T17:08:58.991Z,100342.25
2023-02-01T17:11:28.132Z,100345.53
2023-02-01T17:14:19.780Z,100350.19
2023-02-01T17:16:50.159Z,100358.69
2023-02-01T17:19:24.622Z,100358.84
2023-02-01T17:21:56.950Z,100366.88
2023-02-01T17:24:39.192Z,100369.56
2023-02-01T17:27:15.008Z,100371.22
2023-02-01T17:29:43.685Z,100375.13
2023-02-01T17:32:25.032Z,100373.69
2023-02-01T17:34:52.583Z,100383.09
2023-02-01T17:37:30.214Z,100372.28
2023-02-01T17:39:58.171Z,100382.91
2023-02-01T17:42:28.565Z,100386.00
2023-02-01T17:45:22.600Z,100381.91
2023-02-01T17:47:50.176Z,100394.22
2023-02-01T17:50:17.794Z,100385.69
2023-02-01T17:52:45.168Z,100388.00
2023-02-01T17:55:23.346Z,100397.16
2023-02-01T17:57:51.356Z,100397.94
2023-02-01T18:00:20.596Z,100396.88
2023-02-01T18:02:48.203Z,100400.41
2023-02-01T18:05:27.582Z,100400.38
2023-02-01T18:07:55.095Z,100404.22
2023-02-01T18:10:22.456Z,100403.19
2023-02-01T18:12:49.706Z,100391.81
2023-02-01T18:15:24.876Z,100401.50
2023-02-01T18:17:52.619Z,100399.66
2023-02-01T18:20:24.930Z,100406.66
2023-02-01T18:22:52.696Z,100413.78
2023-02-01T18:25:26.098Z,100410.38
2023-02-01T18:27:57.142Z,100407.94
2023-02-01T18:30:30.991Z,100412.53
2023-02-01T18:32:58.715Z,100406.34
2023-02-01T18:35:33.935Z,100408.41
2023-02-01T18:38:01.297Z,100413.97
2023-02-01T18:40:58.119Z,100405.19
2023-02-01T18:43:26.616Z,100412.44
2023-02-01T18:45:55.030Z,100402.34
2023-02-01T18:48:22.971Z,100409.09
2023-02-01T18:50:57.706Z,100407.75
2023-02-01T18:53:27.565Z,100413.19
2023-02-01T18:55:57.587Z,100415.25
2023-02-01T18:58:26.473Z,100410.03
2023-02-01T19:00:58.045Z,100413.41
2023-02-01T19:03:26.896Z,100413.91
2023-02-01T19:05:57.682Z,100409.84
2023-02-01T19:08:25.767Z,100420.34
2023-02-01T19:10:54.586Z,100421.63
2023-02-01T19:13:24.520Z,100418.81
2023-02-01T19:15:51.984Z,100409.28
2023-02-01T19:18:21.784Z,100412.75
2023-02-01T19:20:51.767Z,100399.41
2023-02-01T19:23:19.345Z,100403.16
2023-02-01T19:25:49.325Z,100402.03
2023-02-01T19:28:19.301Z,100393.16
2023-02-01T19:30:46.771Z,100392.69
2023-02-01T19:33:14.075Z,100395.69
2023-02-01T19:35:41.714Z,100406.25
2023-02-01T19:38:11.302Z,100400.81
2023-02-01T19:40:38.719Z,100410.59
2023-02-01T19:43:06.112Z,100407.34
2023-02-01T19:45:33.436Z,100416.66
2023-02-01T19:48:03.223Z,100416.91
2023-02-01T19:50:30.851Z,100417.31
2023-02-01T19:52:59.536Z,100416.84
2023-02-01T19:55:26.870Z,100417.75
2023-02-01T19:57:54.213Z,100430.44
2023-02-01T20:00:21.749Z,100421.66
2023-02-01T20:02:49.330Z,100427.41
2023-02-01T20:05:18.140Z,100426.19
2023-02-01T20:07:45.483Z,100421.28
2023-02-01T20:10:12.821Z,100426.13
2023-02-01T20:12:40.465Z,100429.28
2023-02-01T20:15:08.376Z,100427.28
2023-02-01T20:17:36.467Z,100426.63
2023-02-01T20:20:05.117Z,100428.88
2023-02-01T20:22:32.646Z,100432.25
2023-02-01T20:25:02.391Z,100422.31
2023-02-01T20:27:30.921Z,100428.59
2023-02-01T20:29:58.161Z,100423.53
2023-02-01T20:32:25.535Z,100427.28
2023-02-01T20:34:54.271Z,100423.97
2023-02-01T20:37:21.638Z,100426.78
2023-02-01T20:39:50.147Z,100437.72
2023-02-01T20:42:18.946Z,100431.97
2023-02-01T20:44:50.544Z,100434.25
2023-02-01T20:47:19.195Z,100427.00
2023-02-01T20:49:46.955Z,100419.66
2023-02-01T20:52:14.378Z,100421.91
2023-02-01T20:54:42.637Z,100428.38
2023-02-01T20:57:11.654Z,100423.97
2023-02-01T20:59:40.606Z,100430.75
2023-02-01T21:02:11.814Z,100427.97
2023-02-01T21:04:39.510Z,100427.97
2023-02-01T21:07:06.853Z,100423.91
2023-02-01T21:09:35.088Z,100415.78
2023-02-01T21:12:03.927Z,100418.16
2023-02-01T21:14:32.778Z,100417.34
2023-02-01T21:17:04.058Z,100417.59
2023-02-01T21:19:43.480Z,100421.75
2023-02-01T21:22:14.947Z,100416.88
2023-02-01T21:24:43.137Z,100422.19
2023-02-01T21:27:11.908Z,100423.69
2023-02-01T21:29:42.186Z,100430.66
2023-02-01T21:32:11.157Z,100426.81
2023-02-01T21:34:39.946Z,100429.19
2023-02-01T21:37:08.794Z,100432.25
2023-02-01T21:39:37.541Z,100434.16
2023-02-01T21:42:15.242Z,100434.16
2023-02-01T21:44:46.246Z,100421.38
2023-02-01T21:47:18.516Z,100422.13
2023-02-01T21:49:49.032Z,100426.13
2023-02-01T21:52:18.844Z,100426.91
2023-02-01T21:54:49.115Z,100420.66
2023-02-01T21:57:17.923Z,100427.50
2023-02-01T21:59:46.152Z,100432.97
2023-02-01T22:02:17.266Z,100440.41
2023-02-01T22:04:45.157Z,100429.53
2023-02-01T22:07:12.734Z,100436.06
2023-02-01T22:09:40.851Z,100438.56
2023-02-01T22:12:13.474Z,100442.75
2023-02-01T22:14:44.698Z,100441.75
2023-02-01T22:17:13.316Z,100443.88
2023-02-01T22:19:42.398Z,100444.25
2023-02-01T22:22:11.647Z,100441.78
2023-02-01T22:24:39.014Z,100441.56
2023-02-01T22:27:14.398Z,100447.59
2023-02-01T22:29:43.563Z,100441.94
2023-02-01T22:32:13.759Z,100436.97
2023-02-01T22:34:41.263Z,100439.69
2023-02-01T22:37:09.522Z,100438.16
2023-02-01T22:39:37.845Z,100438.38
2023-02-01T22:42:05.608Z,100435.44
2023-02-01T22:44:33.059Z,100432.28
2023-02-01T22:47:00.226Z,100432.50
2023-02-01T22:49:27.499Z,100434.41
2023-02-01T22:51:54.770Z,100438.13
2023-02-01T22:54:22.508Z,100436.97
2023-02-01T22:56:52.255Z,100440.97
2023-02-01T22:59:19.996Z,100438.03
2023-02-01T23:01:47.340Z,100441.75
2023-02-01T23:04:15.452Z,100437.13
2023-02-01T23:06:43.085Z,100433.84
2023-02-01T23:09:25.133Z,100435.22
2023-02-01T23:11:54.711Z,100426.88
2023-02-01T23:14:22.220Z,100444.94
2023-02-01T23:16:50.243Z,100428.53
2023-02-01T23:19:18.472Z,100440.19
2023-02-01T23:21:46.128Z,100444.50
2023-02-01T23:24:13.572Z,100437.88
2023-02-01T23:26:42.381Z,100439.34
2023-02-01T23:29:18.435Z,100447.78
2023-02-01T23:31:45.906Z,100442.09
2023-02-01T23:34:13.118Z,100449.78
2023-02-01T23:36:40.472Z,100448.13
2023-02-01T23:39:07.735Z,100449.41
2023-02-01T23:41:35.187Z,100443.94
2023-02-01T23:44:02.441Z,100442.97
2023-02-01T23:46:38.440Z,100444.97
2023-02-01T23:49:08.912Z,100445.16
2023-02-01T23:51:37.234Z,100442.47
2023-02-01T23:54:06.111Z,100446.03
2023-02-01T23:56:39.910Z,100441.84
2023-02-01T23:59:16.851Z,100446.03
